Brimley, MI (49715)

7:58 PM EST on February 27, 2015 (GMT -0500)
BMCC Lake Superior | Change Station
CLOSE
Current Station
Personal Weather Station
Location: Brimley, MI
Elevation: 645 ft
Nearby Weather Stations

Elev 645 ft 46.45 °N, 84.61 °W | Updated 10 seconds ago

Clear
Clear
4.3 °F
Feels Like 4 °F
N
0.0
Wind Variable Wind from WSW
Gusts 4.2 mph

Today
High -- | Low -- °F
--% Chance of Precip.
Yesterday
High -- | Low -- °F
Precip. -- in
7:21 AM 6:21 PM
Waxing Gibbous, 73% visible
Pressure 30.51 in
Visibility 10.0 miles
Clouds Clear
Windchill 4 °F
Dew Point -0 °F
Humidity 80%
Rainfall 0.00 in
Snow Depth Not available.
UV 0 out of 12
Pollen .30 out of 12
Air Quality Not available.
Flu Activity Not available.
METAR KANJ 280055Z AUTO 23005KT 10SM CLR M14/M19 A3045 RMK AO2 SLP331 T11391194

More Conditions Fewer Conditions

Pressure 30.51 in
Visibility 10.0 miles
Clouds Clear
Windchill 4 °F
Dew Point -0 °F
Humidity 80%
Rainfall 0.00 in
Snow Depth Not available.
UV 0 out of 12
Pollen .30 out of 12
Air Quality Not available.
Flu Activity Not available.
METAR KANJ 280055Z AUTO 23005KT 10SM CLR M14/M19 A3045 RMK AO2 SLP331 T11391194

More Conditions Fewer Conditions

Nowcast | as of 6:00 PM EST on February 27, 2015

At 7 PM...clear. Temperature 6 above. Southwest winds 5 mph. At 9 PM...clear. Temperature zero. Southwest winds 5 mph. At 11 PM...clear. Temperature 5 below. Southwest winds 5 mph. At 1 am...mostly clear. Temperature 5 below. Southwest winds 5 mph.

×

10-Day Weather Forecast

Almanac

Astronomy

Feb. 27, 2015 Rise Set
Actual Time
Civil Twilight
Nautical Twilight
Astronomical Twilight
Moon
Length of Visible Light
Length of Day
Tomorrow will be .
, % of the Moon is Illuminated

Today's Extremes

State Highs State Lows

Community

WunderPhotos

Upload Photos

1,800,910 photos uploaded!

WunderBlogs® & News

Nearby

Air Quality

  Air Quality AQ Index Pollutant
Not available.

Snow Depth

Station Depth Elevation

Earthquake Activity

City Distance Mag. Time & Date
Minimum magnitude displayed is 2.5.

Coastal Water Temperatures

Place Temperature

Nearby Weather Stations